Ladario, Brazil
Current Conditions -  °F | °C
As of 2:00 PM on Saturday 25 Oct 2014 (Local Time) from SBCR Reporting Station
Broken Clouds Broken Clouds  
Wind Chill: 84°   Ceiling: 2500
Heat Index: 90°   Visibility: 6mi
Dew Point: 72°   Wind: 3mph
Humidity: 66%   Direction: 30°NNE
Pressure: 29.85"   Gusts: NA
Location:  19°S, 57.6°W
Report Text: SBCR 251700Z 03003KT 9999 BKN025 29/22 Q1011
Loading
Personal Weather Stations






























Interactive Weather Map
Tropical Storm Tracking
New forecast layout! Learn more

10-Day Weather Forecast

Advertisements
Track Severe Weather on mobile